Talal Al-Dosari

Chefscout - Al-Qadisiyah
8 Okt 2028
Sonntag
Verarbeitung

Persönlichkeit

Anpassungsfähigkeit (10) Ehrgeiz (10) Kontroverse (16) Loyalität (2) Druck (12) Professionalität (4) Fairness (1) Temperament (10)

Profil

Trainerstil Demokratisch
Lizenz Kontinentale C
Entschlossenheit 7
Menschenführung 8
Motivation 12
Disziplin 10
Arbeitszufriedenheit
100%
Ermüdung
0%
Rolle Chefscout
Gehalt 37.5K p/W
Vertrag 14.03.2030

Leistung

Verhalten Gut
Trainingseffektivität
50%
Spielerentwicklung
55%
Verletzungsprävention
45%
Taktische Umsetzung
55%

Letzte Ereignisse

Nahm an einer Scouting-Besprechung teil jetzt
Nahm an einer Scouting-Besprechung teil jetzt
Empfahl ein Transferziel jetzt
Empfahl ein Transferziel jetzt
Nahm an einer Scouting-Besprechung teil jetzt
Nahm an einer Scouting-Besprechung teil jetzt
Spieler begutachtet jetzt
Spieler begutachtet jetzt

Aktuell beobachtet

113
Spieler Verein Status Fähigkeit Vertrauen Beobachtet Zuletzt beobachtet Letzte Stimme
Gideon Manaseh Ikorodu City Aktiv 87 / 102 40% 2 07.10.2028 -
Tyler Fletcher Rotherham United Aktiv 123 / 122 40% 1 07.10.2028 -
Lautaro Dufur Juventud Aktiv 95 / 111 40% 1 07.10.2028 -
Ismaila Okpoti Al Ain Aktiv 97 / 106 40% 2 05.10.2028 -
Filip Reshane Stabaek Aktiv 101 / 97 40% 1 05.10.2028 -
Matías Magdaleno Estudiantes Aktiv 112 / 121 40% 1 05.10.2028 -
Mateo Faure BATE Aktiv 82 / 93 40% 2 04.10.2028 -
Hian Rincón Once Caldas Aktiv 99 / 104 40% 1 04.10.2028 -
Ahmed Yasser Ghazl El Mahalla Aktiv 99 / 102 40% 1 04.10.2028 -
Nour Ashraf ENPPI Aktiv 89 / 93 40% 1 03.10.2028 -
Basel Medhat Smouha Aktiv 100 / 108 40% 1 03.10.2028 -
Matías Satas Grimsby Town Aktiv 102 / 115 40% 1 03.10.2028 -
Diego León Rotherham United Aktiv 120 / 132 40% 1 06.09.2028 -
Johan Solstad-Nøis Tromso Aktiv 99 / 96 40% 1 06.09.2028 -
Axel Tape Bayer Leverkusen Aktiv 140 / 142 40% 2 05.09.2028 -
Mohamed Bendary ENPPI Aktiv 97 / 100 40% 1 05.09.2028 -
Facundo Balatti Penarol Aktiv 99 / 110 40% 1 05.09.2028 -
Tyson Pearce St. Louis CITY SC Aktiv 100 / 105 40% 1 04.09.2028 -
Clayton Diandy Al-Diriyah Aktiv 120 / 120 72% 1 14.08.2028 Befürworten
Faris Al-Ghamdi Al-Ettifaq Verloren 107 / 107 72% 1 17.07.2028 Befürworten
Chris Smalling Al-Fayha Verloren 129 / 115 72% 1 10.07.2028 Befürworten
Tyrese Campbell Sheffield United Aktiv 141 / 135 40% 1 03.07.2028 -
Zito Luvumbo Cagliari Aktiv 142 / 136 40% 1 03.07.2028 -
Tyreece Campbell Charlton Athletic Aktiv 126 / 125 40% 1 03.07.2028 -
Martim Cunha Porto Aktiv 111 / 114 40% 3 12.06.2028 -
Christos Mouzakitis Hull City Aktiv 141 / 140 40% 1 12.06.2028 -
Andrea Cogoni Cosenza Aktiv 106 / 120 40% 1 12.06.2028 -
Khalid Al-Ghannam Al-Ettifaq Verloren 114 / 118 72% 1 07.06.2028 -
Matias Siltanen Malmo FF Verhandlung 136 / 133 40% 2 04.01.2028 Mehr Infos nötig
Andrey Ivlev Nizhniy Novgorod Aktiv 111 / 122 40% 1 29.12.2027 -
Tobiáš Pališčák Zlin Aktiv 92 / 95 40% 1 29.12.2027 -
Björn Hedlöf Helsingborg Aktiv 103 / 98 40% 3 26.12.2027 -
Colin Guske Orlando City Aktiv 104 / 94 40% 4 26.12.2027 -
Nicolas Sport Recife Aktiv 100 / 113 40% 1 26.12.2027 -
Momodou Jatta Al Jazira Aktiv 114 / 114 40% 3 25.12.2027 -
Victor Hernandez Santa Fe Aktiv 120 / 122 40% 3 25.12.2027 -
Jon Esenga IF Elfsborg Aktiv 105 / 109 40% 2 25.12.2027 -
Josh Acheampong Everton Aktiv 146 / 142 40% 2 24.12.2027 -
Amine Boukamir Charleroi Aktiv 104 / 104 40% 2 22.12.2027 -
Joel Ezra Enyimba Aktiv 85 / 92 40% 6 20.12.2027 -
Fodé Sylla Sion Aktiv 116 / 131 40% 1 18.12.2027 -
Snyder Brunell Seattle Sounders Aktiv 94 / 105 40% 1 15.12.2027 -
Daniel Banjaqui Benfica Aktiv 127 / 137 40% 1 07.12.2027 -
Hugo Rojas Instituto Aktiv 101 / 109 40% 2 06.12.2027 -
Luciano Posadas Central Córdoba SdE Aktiv 103 / 99 40% 1 02.12.2027 -
Ignacio Fernández Boston River Aktiv 90 / 101 40% 3 30.11.2027 -
Tobias Moi Lillestrom Aktiv 114 / 115 40% 1 29.11.2027 -
Jorthy Mokio ADO Den Haag Aktiv 131 / 131 40% 1 26.11.2027 -
Jonny Shore New York City Aktiv 101 / 100 40% 2 24.11.2027 -
Agustín Obregón River Plate Aktiv 118 / 110 40% 1 24.11.2027 -
Diego Vargas Universidad de Concepcion Aktiv 95 / 93 40% 1 19.11.2027 -
Yiandro Raap Ilves Aktiv 98 / 110 40% 1 16.11.2027 -
Oscar Steinke Brånby Hammarby Aktiv 104 / 96 40% 1 14.11.2027 -
Moustapha Sémbène Al-Taawoun Aktiv 114 / 110 40% 1 11.11.2027 -
Zahir Ibarra Defensa y Justicia Aktiv 91 / 118 40% 1 11.11.2027 -
Luka Vušković Tottenham Aktiv 146 / 162 40% 1 10.11.2027 -
Harbor Miller LA Galaxy Aktiv 100 / 108 40% 1 10.11.2027 -
Honest Ahanor Atalanta Aktiv 140 / 143 40% 1 05.11.2027 -
Diego Cheuquepal Racing Aktiv 89 / 115 40% 1 31.08.2027 -
Juan Manuel Villalba Tigre Aktiv 116 / 122 40% 1 31.08.2027 -
Vadim Arutyunyan Dnepr Mogilev Aktiv 96 / 96 40% 1 30.08.2027 -
Paolo Yrizar Chernomorets Aktiv 103 / 91 40% 2 12.07.2027 -
Ruslan Apekov Torpedo Moscow Aktiv 117 / 92 40% 2 12.07.2027 -
Óscar Al-Diriyah Aktiv 127 / 132 72% 1 28.06.2027 Befürworten
Miguel Figueiredo Benfica Aktiv 112 / 116 40% 1 11.06.2027 -
Gady Beyuku Blackburn Rovers Aktiv 117 / 126 40% 2 09.06.2027 -
André Miranda Porto Aktiv 99 / 108 40% 1 09.06.2027 -
Lander Astiazarán Real Sociedad Aktiv 109 / 102 40% 1 07.06.2027 -
Víctor Guzmán Sporting CP Aktiv 98 / 99 40% 1 07.06.2027 -
Prince Ibara Al-Njoom Aktiv 108 / 103 40% 9 18.05.2027 -
Ekain Orobengoa Real Sociedad Aktiv 102 / 100 40% 1 14.05.2027 -
Georginio Wijnaldum Al-Ettifaq Aktiv 143 / 129 40% 8 11.05.2027 -
Wilfried Kanga Al-Fateh Aktiv 120 / 126 40% 3 11.05.2027 -
Gbolahan Salami Aktiv 91 / 81 40% 2 06.05.2027 -
Sadio Mané Al-Nassr Aktiv 154 / 150 40% 4 05.05.2027 -
Simy Al-Orobah Aktiv 114 / 110 40% 7 03.05.2027 Beobachten
Leandro Antunes Al-Riyadh Aktiv 119 / 105 40% 5 01.05.2027 -
Job Ochieng Real Sociedad Aktiv 107 / 110 40% 4 01.05.2027 -
Mateus Mané Burnley Aktiv 134 / 146 40% 1 01.05.2027 -
Amir Sayoud Al-Hazem Aktiv 124 / 112 40% 2 26.04.2027 -
Törles Knöll Al-Ta'ee Aktiv 105 / 96 40% 2 25.04.2027 -
Brayan Gil Baltika Aktiv 134 / 132 40% 4 22.04.2027 -
Martin Sekulić Ural Aktiv 115 / 118 40% 6 22.04.2027 -
Peter Olayinka Al-Wehda Aktiv 131 / 112 40% 5 21.04.2027 -
Mamadou Sylla Al-Riyadh Aktiv 120 / 121 40% 6 19.04.2027 Beobachten
Joshua King Al-Khaleej Aktiv 128 / 124 40% 4 16.04.2027 -
Jhon Córdoba Krasnodar Aktiv 146 / 151 40% 2 15.04.2027 -
Lars Veldwijk Aktiv 100 / 100 40% 1 11.04.2027 -
Moussa Koné Al-Ra'ed Aktiv 121 / 125 40% 3 10.04.2027 -
Egas Cacintura Akhmat Grozny Aktiv 130 / 116 40% 2 27.03.2027 -
Hamdan Al Shamsi Al Ahli Aktiv 96 / 102 40% 1 22.03.2027 -
Ivan Sergeev Dinamo Moscow Aktiv 130 / 109 40% 2 13.03.2027 -
Amur Kalmykov Spartak Kostroma Aktiv 113 / 94 40% 1 09.03.2027 -
Pablo Latorre Ohod Aktiv 78 / 93 40% 1 06.03.2027 -
Jacques Siwe Rubin Aktiv 114 / 119 40% 1 27.02.2027 -
Ollie Watkins Al-Hilal Aktiv 146 / 140 40% 1 26.02.2027 -
Tenton Yenne Baltika Aktiv 111 / 98 40% 1 25.02.2027 -
Zinho Gano Al-Ra'ed Aktiv 111 / 105 40% 1 24.02.2027 -
Vyacheslav Grulev Nizhniy Novgorod Aktiv 117 / 119 40% 2 15.02.2027 -
Francisco Vera Hibernians Aktiv 90 / 78 40% 1 13.02.2027 -
Darwin González Al-Wehda Aktiv 119 / 121 40% 2 11.02.2027 -
Dardan Shabanhaxhaj Rubin Aktiv 117 / 130 40% 1 08.02.2027 -
Ilyas Ansah Hull City Aktiv 135 / 138 40% 1 07.02.2027 -
Albert Amoah Hajer Aktiv 99 / 103 40% 1 05.02.2027 -
Nikos Karelis Aktiv 98 / 93 40% 1 04.02.2027 -
Karim El Berkaoui Al-Khaleej Aktiv 125 / 110 40% 1 03.02.2027 -
Sascha Britschgi AC Milan Aktiv 121 / 123 40% 1 05.01.2027 -
Lucas Mbamba Westerlo Aktiv 88 / 85 40% 1 02.01.2027 -
David Ozoh Derby County Aktiv 117 / 128 40% 1 09.12.2026 -
Konta Ismaily Aktiv 85 / 99 40% 1 18.11.2026 -
Nazareno Roselli Defensa y Justicia Aktiv 116 / 127 40% 1 03.11.2026 -
César Magallan Estudiantes de Merida Aktiv 98 / 112 40% 1 24.08.2026 -
Lautaro Quiroga Defensa y Justicia Aktiv 97 / 116 40% 1 12.08.2026 -